sensor_id;sensor_type;location;lat;lon;timestamp;temperature;humidity
16289;DHT22;26089;43.538;5.250;2023-04-05T00:02:20;7.20;99.90
16289;DHT22;26089;43.538;5.250;2023-04-05T00:04:49;8.10;99.90
16289;DHT22;26089;43.538;5.250;2023-04-05T00:07:17;7.20;99.90
16289;DHT22;26089;43.538;5.250;2023-04-05T00:09:47;7.20;99.90
16289;DHT22;26089;43.538;5.250;2023-04-05T00:12:15;7.20;99.90
16289;DHT22;26089;43.538;5.250;2023-04-05T00:14:41;7.30;99.90
16289;DHT22;26089;43.538;5.250;2023-04-05T00:17:09;7.10;99.90
16289;DHT22;26089;43.538;5.250;2023-04-05T00:19:36;8.10;99.90
16289;DHT22;26089;43.538;5.250;2023-04-05T00:22:04;7.30;99.90
16289;DHT22;26089;43.538;5.250;2023-04-05T00:24:31;7.30;99.90
16289;DHT22;26089;43.538;5.250;2023-04-05T00:26:59;7.20;99.90
16289;DHT22;26089;43.538;5.250;2023-04-05T00:29:26;7.20;99.90
16289;DHT22;26089;43.538;5.250;2023-04-05T00:31:54;7.20;99.90
16289;DHT22;26089;43.538;5.250;2023-04-05T00:34:21;7.10;99.90
16289;DHT22;26089;43.538;5.250;2023-04-05T00:36:48;6.90;99.90
16289;DHT22;26089;43.538;5.250;2023-04-05T00:39:15;6.90;99.90
16289;DHT22;26089;43.538;5.250;2023-04-05T00:41:42;6.70;99.90
16289;DHT22;26089;43.538;5.250;2023-04-05T00:44:11;6.70;99.90
16289;DHT22;26089;43.538;5.250;2023-04-05T00:46:38;7.00;99.90
16289;DHT22;26089;43.538;5.250;2023-04-05T00:49:05;6.50;99.90
16289;DHT22;26089;43.538;5.250;2023-04-05T00:51:33;6.50;99.90
16289;DHT22;26089;43.538;5.250;2023-04-05T00:54:00;6.50;99.90
16289;DHT22;26089;43.538;5.250;2023-04-05T00:56:28;6.60;99.90
16289;DHT22;26089;43.538;5.250;2023-04-05T00:58:56;6.80;99.90
16289;DHT22;26089;43.538;5.250;2023-04-05T01:01:25;6.40;99.90
16289;DHT22;26089;43.538;5.250;2023-04-05T01:03:56;6.40;99.90
16289;DHT22;26089;43.538;5.250;2023-04-05T01:06:42;6.40;99.90
16289;DHT22;26089;43.538;5.250;2023-04-05T01:09:19;6.40;99.90
16289;DHT22;26089;43.538;5.250;2023-04-05T01:11:48;6.60;99.90
16289;DHT22;26089;43.538;5.250;2023-04-05T01:14:17;6.50;99.90
16289;DHT22;26089;43.538;5.250;2023-04-05T01:16:45;6.20;99.90
16289;DHT22;26089;43.538;5.250;2023-04-05T01:19:14;6.70;99.90
16289;DHT22;26089;43.538;5.250;2023-04-05T01:21:57;5.80;99.90
16289;DHT22;26089;43.538;5.250;2023-04-05T01:24:43;6.80;99.90
16289;DHT22;26089;43.538;5.250;2023-04-05T01:27:18;6.80;99.90
16289;DHT22;26089;43.538;5.250;2023-04-05T01:29:50;6.30;99.90
16289;DHT22;26089;43.538;5.250;2023-04-05T01:32:26;7.10;99.90
16289;DHT22;26089;43.538;5.250;2023-04-05T01:35:03;7.00;99.90
16289;DHT22;26089;43.538;5.250;2023-04-05T01:37:33;6.50;99.90
16289;DHT22;26089;43.538;5.250;2023-04-05T01:40:01;6.40;99.90
16289;DHT22;26089;43.538;5.250;2023-04-05T01:42:30;6.30;99.90
16289;DHT22;26089;43.538;5.250;2023-04-05T01:44:59;6.20;99.90
16289;DHT22;26089;43.538;5.250;2023-04-05T01:47:26;6.20;99.90
16289;DHT22;26089;43.538;5.250;2023-04-05T01:49:53;6.10;99.90
16289;DHT22;26089;43.538;5.250;2023-04-05T01:52:20;5.90;99.90
16289;DHT22;26089;43.538;5.250;2023-04-05T01:54:46;5.90;99.90
16289;DHT22;26089;43.538;5.250;2023-04-05T01:57:13;5.50;99.90
16289;DHT22;26089;43.538;5.250;2023-04-05T01:59:40;5.80;99.90
16289;DHT22;26089;43.538;5.250;2023-04-05T02:02:09;5.80;99.90
16289;DHT22;26089;43.538;5.250;2023-04-05T02:04:36;5.70;99.90
16289;DHT22;26089;43.538;5.250;2023-04-05T02:07:03;5.70;99.90
16289;DHT22;26089;43.538;5.250;2023-04-05T02:09:30;5.70;99.90
16289;DHT22;26089;43.538;5.250;2023-04-05T02:11:57;6.30;99.90
16289;DHT22;26089;43.538;5.250;2023-04-05T02:14:24;5.60;99.90
16289;DHT22;26089;43.538;5.250;2023-04-05T02:16:51;5.60;99.90
16289;DHT22;26089;43.538;5.250;2023-04-05T02:19:22;5.40;99.90
16289;DHT22;26089;43.538;5.250;2023-04-05T02:21:50;5.50;99.90
16289;DHT22;26089;43.538;5.250;2023-04-05T02:24:18;5.50;99.90
16289;DHT22;26089;43.538;5.250;2023-04-05T02:26:46;5.30;99.90
16289;DHT22;26089;43.538;5.250;2023-04-05T02:29:13;4.80;99.90
16289;DHT22;26089;43.538;5.250;2023-04-05T02:31:40;5.90;99.90
16289;DHT22;26089;43.538;5.250;2023-04-05T02:34:07;6.00;99.90
16289;DHT22;26089;43.538;5.250;2023-04-05T02:36:37;6.10;99.90
16289;DHT22;26089;43.538;5.250;2023-04-05T02:39:06;6.00;99.90
16289;DHT22;26089;43.538;5.250;2023-04-05T02:41:34;5.90;99.90
16289;DHT22;26089;43.538;5.250;2023-04-05T02:44:01;5.90;99.90
16289;DHT22;26089;43.538;5.250;2023-04-05T02:46:28;6.00;99.90
16289;DHT22;26089;43.538;5.250;2023-04-05T02:48:55;5.90;99.90
16289;DHT22;26089;43.538;5.250;2023-04-05T02:51:22;6.20;99.90
16289;DHT22;26089;43.538;5.250;2023-04-05T02:53:50;5.70;99.90
16289;DHT22;26089;43.538;5.250;2023-04-05T02:56:17;5.30;99.90
16289;DHT22;26089;43.538;5.250;2023-04-05T02:58:46;5.60;99.90
16289;DHT22;26089;43.538;5.250;2023-04-05T03:01:14;5.50;99.90
16289;DHT22;26089;43.538;5.250;2023-04-05T03:03:42;5.50;99.90
16289;DHT22;26089;43.538;5.250;2023-04-05T03:06:09;5.90;99.90
16289;DHT22;26089;43.538;5.250;2023-04-05T03:08:37;5.00;99.90
16289;DHT22;26089;43.538;5.250;2023-04-05T03:11:10;5.30;99.90
16289;DHT22;26089;43.538;5.250;2023-04-05T03:13:37;5.20;99.90
16289;DHT22;26089;43.538;5.250;2023-04-05T03:16:05;5.50;99.90
16289;DHT22;26089;43.538;5.250;2023-04-05T03:18:32;5.20;99.90
16289;DHT22;26089;43.538;5.250;2023-04-05T03:20:59;5.30;99.90
16289;DHT22;26089;43.538;5.250;2023-04-05T03:23:27;5.40;99.90
16289;DHT22;26089;43.538;5.250;2023-04-05T03:25:54;5.50;99.90
16289;DHT22;26089;43.538;5.250;2023-04-05T03:28:24;5.60;99.90
16289;DHT22;26089;43.538;5.250;2023-04-05T03:30:51;5.60;99.90
16289;DHT22;26089;43.538;5.250;2023-04-05T03:33:18;5.60;99.90
16289;DHT22;26089;43.538;5.250;2023-04-05T03:35:46;5.60;99.90
16289;DHT22;26089;43.538;5.250;2023-04-05T03:38:13;5.60;99.90
16289;DHT22;26089;43.538;5.250;2023-04-05T03:40:40;5.70;99.90
16289;DHT22;26089;43.538;5.250;2023-04-05T03:43:07;5.50;99.90
16289;DHT22;26089;43.538;5.250;2023-04-05T03:45:36;5.40;99.90
16289;DHT22;26089;43.538;5.250;2023-04-05T03:48:03;5.70;99.90
16289;DHT22;26089;43.538;5.250;2023-04-05T03:50:30;5.80;99.90
16289;DHT22;26089;43.538;5.250;2023-04-05T03:52:57;5.80;99.90
16289;DHT22;26089;43.538;5.250;2023-04-05T03:55:26;5.70;99.90
16289;DHT22;26089;43.538;5.250;2023-04-05T03:57:53;5.70;99.90
16289;DHT22;26089;43.538;5.250;2023-04-05T04:00:20;5.90;99.90
16289;DHT22;26089;43.538;5.250;2023-04-05T04:02:50;5.60;99.90
16289;DHT22;26089;43.538;5.250;2023-04-05T04:05:18;5.30;99.90
16289;DHT22;26089;43.538;5.250;2023-04-05T04:07:45;5.50;99.90
16289;DHT22;26089;43.538;5.250;2023-04-05T04:10:14;5.40;99.90
16289;DHT22;26089;43.538;5.250;2023-04-05T04:12:42;5.30;99.90
16289;DHT22;26089;43.538;5.250;2023-04-05T04:15:10;5.30;99.90
16289;DHT22;26089;43.538;5.250;2023-04-05T04:17:37;5.30;99.90
16289;DHT22;26089;43.538;5.250;2023-04-05T04:20:07;5.50;99.90
16289;DHT22;26089;43.538;5.250;2023-04-05T04:22:36;5.40;99.90
16289;DHT22;26089;43.538;5.250;2023-04-05T04:25:06;5.50;99.90
16289;DHT22;26089;43.538;5.250;2023-04-05T04:27:35;5.60;99.90
16289;DHT22;26089;43.538;5.250;2023-04-05T04:30:06;5.60;99.90
16289;DHT22;26089;43.538;5.250;2023-04-05T04:32:35;5.60;99.90
16289;DHT22;26089;43.538;5.250;2023-04-05T04:35:22;5.60;99.90
16289;DHT22;26089;43.538;5.250;2023-04-05T04:37:52;6.90;99.90
16289;DHT22;26089;43.538;5.250;2023-04-05T04:40:19;5.50;99.90
16289;DHT22;26089;43.538;5.250;2023-04-05T04:42:47;5.90;99.90
16289;DHT22;26089;43.538;5.250;2023-04-05T04:45:16;5.30;99.90
16289;DHT22;26089;43.538;5.250;2023-04-05T04:47:43;5.20;99.90
16289;DHT22;26089;43.538;5.250;2023-04-05T04:50:12;5.10;99.90
16289;DHT22;26089;43.538;5.250;2023-04-05T04:52:42;5.10;99.90
16289;DHT22;26089;43.538;5.250;2023-04-05T04:55:09;5.10;99.90
16289;DHT22;26089;43.538;5.250;2023-04-05T04:57:38;5.10;99.90
16289;DHT22;26089;43.538;5.250;2023-04-05T05:00:06;5.00;99.90
16289;DHT22;26089;43.538;5.250;2023-04-05T05:02:38;4.90;99.90
16289;DHT22;26089;43.538;5.250;2023-04-05T05:05:07;4.90;99.90
16289;DHT22;26089;43.538;5.250;2023-04-05T05:07:35;5.20;99.90
16289;DHT22;26089;43.538;5.250;2023-04-05T05:10:05;5.30;99.90
16289;DHT22;26089;43.538;5.250;2023-04-05T05:12:32;5.30;99.90
16289;DHT22;26089;43.538;5.250;2023-04-05T05:14:59;4.60;99.90
16289;DHT22;26089;43.538;5.250;2023-04-05T05:17:26;4.70;99.90
16289;DHT22;26089;43.538;5.250;2023-04-05T05:19:53;4.90;99.90
16289;DHT22;26089;43.538;5.250;2023-04-05T05:22:20;4.90;99.90
16289;DHT22;26089;43.538;5.250;2023-04-05T05:24:46;4.60;99.90
16289;DHT22;26089;43.538;5.250;2023-04-05T05:27:15;4.60;99.90
16289;DHT22;26089;43.538;5.250;2023-04-05T05:29:42;4.50;99.90
16289;DHT22;26089;43.538;5.250;2023-04-05T05:32:09;4.50;99.90
16289;DHT22;26089;43.538;5.250;2023-04-05T05:34:40;4.60;99.90
16289;DHT22;26089;43.538;5.250;2023-04-05T05:37:09;4.50;99.90
16289;DHT22;26089;43.538;5.250;2023-04-05T05:39:36;4.80;99.90
16289;DHT22;26089;43.538;5.250;2023-04-05T05:42:03;4.50;99.90
16289;DHT22;26089;43.538;5.250;2023-04-05T05:44:32;4.50;99.90
16289;DHT22;26089;43.538;5.250;2023-04-05T05:47:00;4.90;99.90
16289;DHT22;26089;43.538;5.250;2023-04-05T05:49:28;4.50;99.90
16289;DHT22;26089;43.538;5.250;2023-04-05T05:51:55;4.50;99.90
16289;DHT22;26089;43.538;5.250;2023-04-05T05:54:23;4.50;99.90
16289;DHT22;26089;43.538;5.250;2023-04-05T05:56:51;4.50;99.90
16289;DHT22;26089;43.538;5.250;2023-04-05T05:59:18;4.60;99.90
16289;DHT22;26089;43.538;5.250;2023-04-05T06:01:47;4.80;99.90
16289;DHT22;26089;43.538;5.250;2023-04-05T06:04:16;4.40;99.90
16289;DHT22;26089;43.538;5.250;2023-04-05T06:06:43;5.10;99.90
16289;DHT22;26089;43.538;5.250;2023-04-05T06:09:12;5.70;99.90
16289;DHT22;26089;43.538;5.250;2023-04-05T06:11:39;5.50;99.90
16289;DHT22;26089;43.538;5.250;2023-04-05T06:14:06;5.60;99.90
16289;DHT22;26089;43.538;5.250;2023-04-05T06:16:33;5.80;99.90
16289;DHT22;26089;43.538;5.250;2023-04-05T06:19:02;6.00;99.90
16289;DHT22;26089;43.538;5.250;2023-04-05T06:21:29;6.30;99.90
16289;DHT22;26089;43.538;5.250;2023-04-05T06:23:56;6.30;99.90
16289;DHT22;26089;43.538;5.250;2023-04-05T06:26:24;6.40;99.90
16289;DHT22;26089;43.538;5.250;2023-04-05T06:28:54;6.60;99.90
16289;DHT22;26089;43.538;5.250;2023-04-05T06:31:26;6.90;99.90
16289;DHT22;26089;43.538;5.250;2023-04-05T06:33:53;6.80;99.90
16289;DHT22;26089;43.538;5.250;2023-04-05T06:36:21;6.90;99.90
16289;DHT22;26089;43.538;5.250;2023-04-05T06:38:49;7.00;99.90
16289;DHT22;26089;43.538;5.250;2023-04-05T06:41:16;7.20;99.90
16289;DHT22;26089;43.538;5.250;2023-04-05T06:43:43;7.40;99.90
16289;DHT22;26089;43.538;5.250;2023-04-05T06:46:10;7.50;99.90
16289;DHT22;26089;43.538;5.250;2023-04-05T06:48:38;7.60;99.90
16289;DHT22;26089;43.538;5.250;2023-04-05T06:51:05;7.70;99.90
16289;DHT22;26089;43.538;5.250;2023-04-05T06:53:33;7.90;99.90
16289;DHT22;26089;43.538;5.250;2023-04-05T06:56:01;8.10;99.90
16289;DHT22;26089;43.538;5.250;2023-04-05T06:58:28;8.40;99.90
16289;DHT22;26089;43.538;5.250;2023-04-05T07:00:55;8.50;99.90
16289;DHT22;26089;43.538;5.250;2023-04-05T07:03:22;8.80;99.90
16289;DHT22;26089;43.538;5.250;2023-04-05T07:05:50;9.10;99.90
16289;DHT22;26089;43.538;5.250;2023-04-05T07:08:18;9.40;99.90
16289;DHT22;26089;43.538;5.250;2023-04-05T07:10:47;9.70;99.90
16289;DHT22;26089;43.538;5.250;2023-04-05T07:13:14;9.90;99.90
16289;DHT22;26089;43.538;5.250;2023-04-05T07:15:41;10.00;99.90
16289;DHT22;26089;43.538;5.250;2023-04-05T07:18:08;10.00;99.90
16289;DHT22;26089;43.538;5.250;2023-04-05T07:20:35;9.90;99.90
16289;DHT22;26089;43.538;5.250;2023-04-05T07:23:02;9.50;99.90
16289;DHT22;26089;43.538;5.250;2023-04-05T07:25:30;9.50;99.90
16289;DHT22;26089;43.538;5.250;2023-04-05T07:27:58;9.30;99.90
16289;DHT22;26089;43.538;5.250;2023-04-05T07:30:26;9.20;99.90
16289;DHT22;26089;43.538;5.250;2023-04-05T07:32:53;9.20;99.90
16289;DHT22;26089;43.538;5.250;2023-04-05T07:35:20;9.20;99.90
16289;DHT22;26089;43.538;5.250;2023-04-05T07:37:47;9.10;99.90
16289;DHT22;26089;43.538;5.250;2023-04-05T07:40:14;8.90;99.90
16289;DHT22;26089;43.538;5.250;2023-04-05T07:42:41;8.90;99.90
16289;DHT22;26089;43.538;5.250;2023-04-05T07:45:10;9.00;99.90
16289;DHT22;26089;43.538;5.250;2023-04-05T07:47:37;9.40;99.90
16289;DHT22;26089;43.538;5.250;2023-04-05T07:50:06;9.60;99.90
16289;DHT22;26089;43.538;5.250;2023-04-05T07:52:34;10.30;99.90
16289;DHT22;26089;43.538;5.250;2023-04-05T07:55:01;10.40;99.90
16289;DHT22;26089;43.538;5.250;2023-04-05T07:57:28;11.70;99.90
16289;DHT22;26089;43.538;5.250;2023-04-05T07:59:55;13.10;99.90
16289;DHT22;26089;43.538;5.250;2023-04-05T08:02:23;13.20;99.90
16289;DHT22;26089;43.538;5.250;2023-04-05T08:04:50;12.40;99.90
16289;DHT22;26089;43.538;5.250;2023-04-05T08:07:17;12.10;99.90
16289;DHT22;26089;43.538;5.250;2023-04-05T08:09:44;11.80;99.90
16289;DHT22;26089;43.538;5.250;2023-04-05T08:12:11;12.80;99.90
16289;DHT22;26089;43.538;5.250;2023-04-05T08:14:38;13.30;99.90
16289;DHT22;26089;43.538;5.250;2023-04-05T08:17:05;12.30;99.90
16289;DHT22;26089;43.538;5.250;2023-04-05T08:19:33;11.70;99.90
16289;DHT22;26089;43.538;5.250;2023-04-05T08:22:00;12.20;99.90
16289;DHT22;26089;43.538;5.250;2023-04-05T08:24:27;13.40;99.90
16289;DHT22;26089;43.538;5.250;2023-04-05T08:26:54;14.50;99.90
16289;DHT22;26089;43.538;5.250;2023-04-05T08:29:21;15.00;99.90
16289;DHT22;26089;43.538;5.250;2023-04-05T08:31:48;15.10;99.90
16289;DHT22;26089;43.538;5.250;2023-04-05T08:34:15;15.80;99.90
16289;DHT22;26089;43.538;5.250;2023-04-05T08:36:44;16.30;99.90
16289;DHT22;26089;43.538;5.250;2023-04-05T08:39:11;16.60;99.90
16289;DHT22;26089;43.538;5.250;2023-04-05T08:41:41;16.90;99.90
16289;DHT22;26089;43.538;5.250;2023-04-05T08:44:11;17.10;99.90
16289;DHT22;26089;43.538;5.250;2023-04-05T08:46:38;17.00;99.90
16289;DHT22;26089;43.538;5.250;2023-04-05T08:49:06;16.10;99.90
16289;DHT22;26089;43.538;5.250;2023-04-05T08:51:35;15.90;99.90
16289;DHT22;26089;43.538;5.250;2023-04-05T08:54:05;15.80;99.90
16289;DHT22;26089;43.538;5.250;2023-04-05T08:56:33;16.40;99.90
16289;DHT22;26089;43.538;5.250;2023-04-05T08:59:02;16.60;99.90
16289;DHT22;26089;43.538;5.250;2023-04-05T09:01:30;17.10;99.90
16289;DHT22;26089;43.538;5.250;2023-04-05T09:03:59;17.60;99.90
16289;DHT22;26089;43.538;5.250;2023-04-05T09:06:27;17.70;99.90
16289;DHT22;26089;43.538;5.250;2023-04-05T09:08:56;17.70;99.90
16289;DHT22;26089;43.538;5.250;2023-04-05T09:11:24;18.10;99.90
16289;DHT22;26089;43.538;5.250;2023-04-05T09:13:51;18.30;99.90
16289;DHT22;26089;43.538;5.250;2023-04-05T09:16:19;17.30;99.90
16289;DHT22;26089;43.538;5.250;2023-04-05T09:18:46;17.60;99.90
16289;DHT22;26089;43.538;5.250;2023-04-05T09:21:13;17.60;99.90
16289;DHT22;26089;43.538;5.250;2023-04-05T09:23:50;17.10;99.90
16289;DHT22;26089;43.538;5.250;2023-04-05T09:26:21;17.40;99.90
16289;DHT22;26089;43.538;5.250;2023-04-05T09:28:50;17.80;99.90
16289;DHT22;26089;43.538;5.250;2023-04-05T09:31:28;17.80;99.90
16289;DHT22;26089;43.538;5.250;2023-04-05T09:33:57;17.80;99.90
16289;DHT22;26089;43.538;5.250;2023-04-05T09:36:25;17.70;99.90
16289;DHT22;26089;43.538;5.250;2023-04-05T09:39:03;17.80;99.90
16289;DHT22;26089;43.538;5.250;2023-04-05T09:41:31;17.60;99.90
16289;DHT22;26089;43.538;5.250;2023-04-05T09:43:59;17.20;99.90
16289;DHT22;26089;43.538;5.250;2023-04-05T09:46:31;17.50;99.90
16289;DHT22;26089;43.538;5.250;2023-04-05T09:48:58;17.90;99.90
16289;DHT22;26089;43.538;5.250;2023-04-05T09:51:32;17.80;99.90
16289;DHT22;26089;43.538;5.250;2023-04-05T09:54:00;17.80;99.90
16289;DHT22;26089;43.538;5.250;2023-04-05T09:56:29;17.70;99.90
16289;DHT22;26089;43.538;5.250;2023-04-05T09:59:01;17.50;99.90
16289;DHT22;26089;43.538;5.250;2023-04-05T10:01:32;17.80;99.90
16289;DHT22;26089;43.538;5.250;2023-04-05T10:03:59;17.90;99.90
16289;DHT22;26089;43.538;5.250;2023-04-05T10:06:36;17.70;99.90
16289;DHT22;26089;43.538;5.250;2023-04-05T10:09:04;18.30;99.90
16289;DHT22;26089;43.538;5.250;2023-04-05T10:11:32;17.60;99.90
16289;DHT22;26089;43.538;5.250;2023-04-05T10:14:02;17.60;99.90
16289;DHT22;26089;43.538;5.250;2023-04-05T10:16:32;17.70;99.90
16289;DHT22;26089;43.538;5.250;2023-04-05T10:19:04;17.90;99.90
16289;DHT22;26089;43.538;5.250;2023-04-05T10:21:35;18.40;99.90
16289;DHT22;26089;43.538;5.250;2023-04-05T10:24:14;18.60;99.90
16289;DHT22;26089;43.538;5.250;2023-04-05T10:26:51;19.00;99.90
16289;DHT22;26089;43.538;5.250;2023-04-05T10:29:31;18.50;99.90
16289;DHT22;26089;43.538;5.250;2023-04-05T10:32:06;19.10;99.90
16289;DHT22;26089;43.538;5.250;2023-04-05T10:34:41;19.00;99.90
16289;DHT22;26089;43.538;5.250;2023-04-05T10:37:12;19.00;99.90
16289;DHT22;26089;43.538;5.250;2023-04-05T10:39:47;19.00;99.40
16289;DHT22;26089;43.538;5.250;2023-04-05T10:42:20;19.10;99.90
16289;DHT22;26089;43.538;5.250;2023-04-05T10:44:51;19.20;98.90
16289;DHT22;26089;43.538;5.250;2023-04-05T10:47:27;19.40;98.40
16289;DHT22;26089;43.538;5.250;2023-04-05T10:49:56;19.70;99.90
16289;DHT22;26089;43.538;5.250;2023-04-05T10:52:26;20.00;98.90
16289;DHT22;26089;43.538;5.250;2023-04-05T10:54:54;20.40;97.60
16289;DHT22;26089;43.538;5.250;2023-04-05T10:57:24;19.80;97.90
16289;DHT22;26089;43.538;5.250;2023-04-05T10:59:53;20.40;97.10
16289;DHT22;26089;43.538;5.250;2023-04-05T11:02:21;20.70;97.70
16289;DHT22;26089;43.538;5.250;2023-04-05T11:04:52;21.00;96.10
16289;DHT22;26089;43.538;5.250;2023-04-05T11:07:21;21.20;95.50
16289;DHT22;26089;43.538;5.250;2023-04-05T11:09:51;21.10;94.80
16289;DHT22;26089;43.538;5.250;2023-04-05T11:12:19;20.40;96.10
16289;DHT22;26089;43.538;5.250;2023-04-05T11:14:45;20.00;96.20
16289;DHT22;26089;43.538;5.250;2023-04-05T11:17:27;20.20;96.10
16289;DHT22;26089;43.538;5.250;2023-04-05T11:20:02;19.80;95.60
16289;DHT22;26089;43.538;5.250;2023-04-05T11:22:29;20.40;95.40
16289;DHT22;26089;43.538;5.250;2023-04-05T11:24:58;20.50;95.50
16289;DHT22;26089;43.538;5.250;2023-04-05T11:27:28;20.50;95.40
16289;DHT22;26089;43.538;5.250;2023-04-05T11:29:56;20.80;95.60
16289;DHT22;26089;43.538;5.250;2023-04-05T11:32:36;21.30;95.10
16289;DHT22;26089;43.538;5.250;2023-04-05T11:35:05;21.50;95.10
16289;DHT22;26089;43.538;5.250;2023-04-05T11:38:06;21.40;93.80
16289;DHT22;26089;43.538;5.250;2023-04-05T11:40:35;21.90;94.10
16289;DHT22;26089;43.538;5.250;2023-04-05T11:43:04;22.20;92.80
16289;DHT22;26089;43.538;5.250;2023-04-05T11:45:33;22.30;92.50
16289;DHT22;26089;43.538;5.250;2023-04-05T11:48:04;22.20;93.00
16289;DHT22;26089;43.538;5.250;2023-04-05T11:50:31;21.50;93.60
16289;DHT22;26089;43.538;5.250;2023-04-05T11:53:09;21.00;93.10
16289;DHT22;26089;43.538;5.250;2023-04-05T11:55:36;21.20;93.40
16289;DHT22;26089;43.538;5.250;2023-04-05T11:58:11;21.30;93.10
16289;DHT22;26089;43.538;5.250;2023-04-05T12:00:38;21.30;92.00
16289;DHT22;26089;43.538;5.250;2023-04-05T12:03:10;21.50;92.40
16289;DHT22;26089;43.538;5.250;2023-04-05T12:05:50;21.70;91.80
16289;DHT22;26089;43.538;5.250;2023-04-05T12:08:17;21.20;92.40
16289;DHT22;26089;43.538;5.250;2023-04-05T12:10:52;21.40;92.10
16289;DHT22;26089;43.538;5.250;2023-04-05T12:13:25;21.10;92.20
16289;DHT22;26089;43.538;5.250;2023-04-05T12:15:52;21.10;92.20
16289;DHT22;26089;43.538;5.250;2023-04-05T12:18:23;20.90;90.90
16289;DHT22;26089;43.538;5.250;2023-04-05T12:20:52;20.50;91.60
16289;DHT22;26089;43.538;5.250;2023-04-05T12:23:19;20.80;92.00
16289;DHT22;26089;43.538;5.250;2023-04-05T12:25:47;21.30;91.10
16289;DHT22;26089;43.538;5.250;2023-04-05T12:28:14;21.50;91.10
16289;DHT22;26089;43.538;5.250;2023-04-05T12:30:48;21.60;90.40
16289;DHT22;26089;43.538;5.250;2023-04-05T12:33:26;21.60;89.10
16289;DHT22;26089;43.538;5.250;2023-04-05T12:35:54;21.50;90.90
16289;DHT22;26089;43.538;5.250;2023-04-05T12:38:24;21.40;90.30
16289;DHT22;26089;43.538;5.250;2023-04-05T12:40:52;21.60;90.40
16289;DHT22;26089;43.538;5.250;2023-04-05T12:43:19;21.90;90.10
16289;DHT22;26089;43.538;5.250;2023-04-05T12:45:46;21.90;88.40
16289;DHT22;26089;43.538;5.250;2023-04-05T12:48:19;21.60;88.30
16289;DHT22;26089;43.538;5.250;2023-04-05T12:50:49;21.20;87.40
16289;DHT22;26089;43.538;5.250;2023-04-05T12:53:20;21.00;88.20
16289;DHT22;26089;43.538;5.250;2023-04-05T12:55:49;21.20;89.50
16289;DHT22;26089;43.538;5.250;2023-04-05T12:58:17;21.30;89.20
16289;DHT22;26089;43.538;5.250;2023-04-05T13:00:45;21.00;84.50
16289;DHT22;26089;43.538;5.250;2023-04-05T13:03:15;20.90;83.40
16289;DHT22;26089;43.538;5.250;2023-04-05T13:05:44;20.50;82.30
16289;DHT22;26089;43.538;5.250;2023-04-05T13:08:13;20.60;82.40
16289;DHT22;26089;43.538;5.250;2023-04-05T13:10:40;21.20;81.60
16289;DHT22;26089;43.538;5.250;2023-04-05T13:13:07;21.20;82.30
16289;DHT22;26089;43.538;5.250;2023-04-05T13:15:34;21.10;81.30
16289;DHT22;26089;43.538;5.250;2023-04-05T13:18:01;20.80;81.10
16289;DHT22;26089;43.538;5.250;2023-04-05T13:20:28;21.60;80.20
16289;DHT22;26089;43.538;5.250;2023-04-05T13:22:55;21.20;78.20
16289;DHT22;26089;43.538;5.250;2023-04-05T13:25:24;20.80;79.00
16289;DHT22;26089;43.538;5.250;2023-04-05T13:27:51;20.80;77.80
16289;DHT22;26089;43.538;5.250;2023-04-05T13:30:18;20.10;77.80
16289;DHT22;26089;43.538;5.250;2023-04-05T13:32:45;19.90;77.60
16289;DHT22;26089;43.538;5.250;2023-04-05T13:35:12;19.90;79.20
16289;DHT22;26089;43.538;5.250;2023-04-05T13:37:39;20.70;78.80
16289;DHT22;26089;43.538;5.250;2023-04-05T13:40:07;20.60;77.40
16289;DHT22;26089;43.538;5.250;2023-04-05T13:42:35;20.60;78.40
16289;DHT22;26089;43.538;5.250;2023-04-05T13:45:03;20.90;76.20
16289;DHT22;26089;43.538;5.250;2023-04-05T13:47:31;21.30;77.00
16289;DHT22;26089;43.538;5.250;2023-04-05T13:49:58;21.10;75.10
16289;DHT22;26089;43.538;5.250;2023-04-05T13:52:25;20.30;76.30
16289;DHT22;26089;43.538;5.250;2023-04-05T13:54:51;20.80;76.90
16289;DHT22;26089;43.538;5.250;2023-04-05T13:57:18;20.70;77.00
16289;DHT22;26089;43.538;5.250;2023-04-05T13:59:47;20.40;75.90
16289;DHT22;26089;43.538;5.250;2023-04-05T14:02:14;20.20;75.70
16289;DHT22;26089;43.538;5.250;2023-04-05T14:04:44;20.60;76.30
16289;DHT22;26089;43.538;5.250;2023-04-05T14:07:11;20.30;73.40
16289;DHT22;26089;43.538;5.250;2023-04-05T14:09:38;20.70;74.70
16289;DHT22;26089;43.538;5.250;2023-04-05T14:12:05;20.80;70.80
16289;DHT22;26089;43.538;5.250;2023-04-05T14:14:32;20.40;71.00
16289;DHT22;26089;43.538;5.250;2023-04-05T14:17:01;20.20;70.40
16289;DHT22;26089;43.538;5.250;2023-04-05T14:19:28;20.00;71.30
16289;DHT22;26089;43.538;5.250;2023-04-05T14:21:55;20.40;71.30
16289;DHT22;26089;43.538;5.250;2023-04-05T14:24:22;20.40;71.40
16289;DHT22;26089;43.538;5.250;2023-04-05T14:26:49;19.90;71.60
16289;DHT22;26089;43.538;5.250;2023-04-05T14:29:17;19.80;71.00
16289;DHT22;26089;43.538;5.250;2023-04-05T14:31:44;20.00;69.90
16289;DHT22;26089;43.538;5.250;2023-04-05T14:34:13;19.80;69.60
16289;DHT22;26089;43.538;5.250;2023-04-05T14:36:40;20.00;72.00
16289;DHT22;26089;43.538;5.250;2023-04-05T14:39:07;20.10;69.60
16289;DHT22;26089;43.538;5.250;2023-04-05T14:41:34;19.60;68.20
16289;DHT22;26089;43.538;5.250;2023-04-05T14:44:02;19.70;67.30
16289;DHT22;26089;43.538;5.250;2023-04-05T14:46:29;19.90;68.70
16289;DHT22;26089;43.538;5.250;2023-04-05T14:48:56;19.60;66.20
16289;DHT22;26089;43.538;5.250;2023-04-05T14:51:25;19.90;67.40
16289;DHT22;26089;43.538;5.250;2023-04-05T14:53:52;19.50;64.20
16289;DHT22;26089;43.538;5.250;2023-04-05T14:56:19;19.50;62.20
16289;DHT22;26089;43.538;5.250;2023-04-05T14:58:46;19.20;62.30
16289;DHT22;26089;43.538;5.250;2023-04-05T15:01:13;19.00;62.10
16289;DHT22;26089;43.538;5.250;2023-04-05T15:03:41;19.30;63.00
16289;DHT22;26089;43.538;5.250;2023-04-05T15:06:08;19.30;60.60
16289;DHT22;26089;43.538;5.250;2023-04-05T15:08:36;19.50;62.10
16289;DHT22;26089;43.538;5.250;2023-04-05T15:11:04;19.70;60.50
16289;DHT22;26089;43.538;5.250;2023-04-05T15:13:31;19.50;60.60
16289;DHT22;26089;43.538;5.250;2023-04-05T15:15:58;19.10;59.10
16289;DHT22;26089;43.538;5.250;2023-04-05T15:18:25;19.10;58.70
16289;DHT22;26089;43.538;5.250;2023-04-05T15:20:52;19.30;58.90
16289;DHT22;26089;43.538;5.250;2023-04-05T15:23:19;19.50;59.20
16289;DHT22;26089;43.538;5.250;2023-04-05T15:25:48;19.20;58.70
16289;DHT22;26089;43.538;5.250;2023-04-05T15:28:15;19.10;59.40
16289;DHT22;26089;43.538;5.250;2023-04-05T15:30:42;19.10;57.80
16289;DHT22;26089;43.538;5.250;2023-04-05T15:33:10;19.20;59.30
16289;DHT22;26089;43.538;5.250;2023-04-05T15:35:37;19.60;62.10
16289;DHT22;26089;43.538;5.250;2023-04-05T15:38:04;19.50;59.30
16289;DHT22;26089;43.538;5.250;2023-04-05T15:40:31;19.40;58.60
16289;DHT22;26089;43.538;5.250;2023-04-05T15:43:00;19.70;59.60
16289;DHT22;26089;43.538;5.250;2023-04-05T15:45:27;19.60;59.20
16289;DHT22;26089;43.538;5.250;2023-04-05T15:47:54;20.00;59.60